sensor_id;sensor_type;location;lat;lon;timestamp;P1;durP1;ratioP1;P2;durP2;ratioP2
67882;SDS011;54681;52.486;-1.890;2023-01-16T00:00:48;8.02;;;2.67;;
67882;SDS011;54681;52.486;-1.890;2023-01-16T00:03:13;6.47;;;2.30;;
67882;SDS011;54681;52.486;-1.890;2023-01-16T00:05:39;9.82;;;2.65;;
67882;SDS011;54681;52.486;-1.890;2023-01-16T00:08:04;9.00;;;2.70;;
67882;SDS011;54681;52.486;-1.890;2023-01-16T00:10:30;8.90;;;3.05;;
67882;SDS011;54681;52.486;-1.890;2023-01-16T00:12:55;8.75;;;2.80;;
67882;SDS011;54681;52.486;-1.890;2023-01-16T00:15:21;9.38;;;2.65;;
67882;SDS011;54681;52.486;-1.890;2023-01-16T00:17:47;7.10;;;2.85;;
67882;SDS011;54681;52.486;-1.890;2023-01-16T00:20:14;7.80;;;2.97;;
67882;SDS011;54681;52.486;-1.890;2023-01-16T00:22:40;7.93;;;2.50;;
67882;SDS011;54681;52.486;-1.890;2023-01-16T00:25:06;8.85;;;2.60;;
67882;SDS011;54681;52.486;-1.890;2023-01-16T00:27:32;9.60;;;2.92;;
67882;SDS011;54681;52.486;-1.890;2023-01-16T00:29:57;8.90;;;2.95;;
67882;SDS011;54681;52.486;-1.890;2023-01-16T00:32:22;9.40;;;2.63;;
67882;SDS011;54681;52.486;-1.890;2023-01-16T00:34:48;8.55;;;2.70;;
67882;SDS011;54681;52.486;-1.890;2023-01-16T00:37:13;9.38;;;2.90;;
67882;SDS011;54681;52.486;-1.890;2023-01-16T00:39:39;9.65;;;2.88;;
67882;SDS011;54681;52.486;-1.890;2023-01-16T00:42:05;7.78;;;2.88;;
67882;SDS011;54681;52.486;-1.890;2023-01-16T00:44:31;8.93;;;2.78;;
67882;SDS011;54681;52.486;-1.890;2023-01-16T00:46:56;10.10;;;3.00;;
67882;SDS011;54681;52.486;-1.890;2023-01-16T00:49:22;6.82;;;2.78;;
67882;SDS011;54681;52.486;-1.890;2023-01-16T00:51:47;9.02;;;2.90;;
67882;SDS011;54681;52.486;-1.890;2023-01-16T00:54:13;8.07;;;2.75;;
67882;SDS011;54681;52.486;-1.890;2023-01-16T00:56:38;10.63;;;2.72;;
67882;SDS011;54681;52.486;-1.890;2023-01-16T00:59:03;8.98;;;2.90;;
67882;SDS011;54681;52.486;-1.890;2023-01-16T01:01:29;9.80;;;3.05;;
67882;SDS011;54681;52.486;-1.890;2023-01-16T01:03:54;9.25;;;3.10;;
67882;SDS011;54681;52.486;-1.890;2023-01-16T01:06:20;9.00;;;3.22;;
67882;SDS011;54681;52.486;-1.890;2023-01-16T01:08:45;7.72;;;3.05;;
67882;SDS011;54681;52.486;-1.890;2023-01-16T01:11:11;11.02;;;3.15;;
67882;SDS011;54681;52.486;-1.890;2023-01-16T01:13:39;9.55;;;3.28;;
67882;SDS011;54681;52.486;-1.890;2023-01-16T01:16:06;10.57;;;3.60;;
67882;SDS011;54681;52.486;-1.890;2023-01-16T01:18:32;9.70;;;3.10;;
67882;SDS011;54681;52.486;-1.890;2023-01-16T01:20:57;10.65;;;3.30;;
67882;SDS011;54681;52.486;-1.890;2023-01-16T01:23:23;10.27;;;3.40;;
67882;SDS011;54681;52.486;-1.890;2023-01-16T01:25:48;10.13;;;3.50;;
67882;SDS011;54681;52.486;-1.890;2023-01-16T01:28:14;10.73;;;3.38;;
67882;SDS011;54681;52.486;-1.890;2023-01-16T01:30:40;10.10;;;3.40;;
67882;SDS011;54681;52.486;-1.890;2023-01-16T01:33:06;8.40;;;3.22;;
67882;SDS011;54681;52.486;-1.890;2023-01-16T01:35:31;10.95;;;3.33;;
67882;SDS011;54681;52.486;-1.890;2023-01-16T01:37:57;11.82;;;3.47;;
67882;SDS011;54681;52.486;-1.890;2023-01-16T01:40:22;10.32;;;3.22;;
67882;SDS011;54681;52.486;-1.890;2023-01-16T01:42:48;8.40;;;3.28;;
67882;SDS011;54681;52.486;-1.890;2023-01-16T01:45:21;9.25;;;3.40;;
67882;SDS011;54681;52.486;-1.890;2023-01-16T01:47:51;12.35;;;3.67;;
67882;SDS011;54681;52.486;-1.890;2023-01-16T01:50:29;10.75;;;3.60;;
67882;SDS011;54681;52.486;-1.890;2023-01-16T01:53:06;13.75;;;3.75;;
67882;SDS011;54681;52.486;-1.890;2023-01-16T01:55:36;10.35;;;3.35;;
67882;SDS011;54681;52.486;-1.890;2023-01-16T01:58:03;12.73;;;3.40;;
67882;SDS011;54681;52.486;-1.890;2023-01-16T02:00:29;8.48;;;3.17;;
67882;SDS011;54681;52.486;-1.890;2023-01-16T02:02:57;9.60;;;3.42;;
67882;SDS011;54681;52.486;-1.890;2023-01-16T02:05:34;9.20;;;3.58;;
67882;SDS011;54681;52.486;-1.890;2023-01-16T02:08:02;6.90;;;3.10;;
67882;SDS011;54681;52.486;-1.890;2023-01-16T02:10:33;12.48;;;3.55;;
67882;SDS011;54681;52.486;-1.890;2023-01-16T02:13:04;10.95;;;3.50;;
67882;SDS011;54681;52.486;-1.890;2023-01-16T02:15:30;7.03;;;3.00;;
67882;SDS011;54681;52.486;-1.890;2023-01-16T02:17:56;10.85;;;3.45;;
67882;SDS011;54681;52.486;-1.890;2023-01-16T02:20:50;13.32;;;3.88;;
67882;SDS011;54681;52.486;-1.890;2023-01-16T02:23:41;11.15;;;3.58;;
67882;SDS011;54681;52.486;-1.890;2023-01-16T02:26:37;11.18;;;3.47;;
67882;SDS011;54681;52.486;-1.890;2023-01-16T02:35:21;10.52;;;3.65;;
67882;SDS011;54681;52.486;-1.890;2023-01-16T02:37:55;10.63;;;3.47;;
67882;SDS011;54681;52.486;-1.890;2023-01-16T02:46:06;9.10;;;3.45;;
67882;SDS011;54681;52.486;-1.890;2023-01-16T02:48:44;8.93;;;3.42;;
67882;SDS011;54681;52.486;-1.890;2023-01-16T02:51:27;10.18;;;3.40;;
67882;SDS011;54681;52.486;-1.890;2023-01-16T02:54:03;8.93;;;3.58;;
67882;SDS011;54681;52.486;-1.890;2023-01-16T02:56:38;11.38;;;3.70;;
67882;SDS011;54681;52.486;-1.890;2023-01-16T02:59:10;10.52;;;3.60;;
67882;SDS011;54681;52.486;-1.890;2023-01-16T03:01:38;12.20;;;3.95;;
67882;SDS011;54681;52.486;-1.890;2023-01-16T03:04:35;11.48;;;3.70;;
67882;SDS011;54681;52.486;-1.890;2023-01-16T03:25:11;8.90;;;3.80;;
67882;SDS011;54681;52.486;-1.890;2023-01-16T03:27:47;14.10;;;4.00;;
67882;SDS011;54681;52.486;-1.890;2023-01-16T03:33:17;11.23;;;4.03;;
67882;SDS011;54681;52.486;-1.890;2023-01-16T03:36:10;9.68;;;4.00;;
67882;SDS011;54681;52.486;-1.890;2023-01-16T03:38:41;10.02;;;3.58;;
67882;SDS011;54681;52.486;-1.890;2023-01-16T03:43:37;10.40;;;3.55;;
67882;SDS011;54681;52.486;-1.890;2023-01-16T03:46:06;9.75;;;3.90;;
67882;SDS011;54681;52.486;-1.890;2023-01-16T03:48:36;9.00;;;3.42;;
67882;SDS011;54681;52.486;-1.890;2023-01-16T03:51:12;8.68;;;3.47;;
67882;SDS011;54681;52.486;-1.890;2023-01-16T03:53:44;10.98;;;3.60;;
67882;SDS011;54681;52.486;-1.890;2023-01-16T03:56:18;9.73;;;3.90;;
67882;SDS011;54681;52.486;-1.890;2023-01-16T03:58:46;10.90;;;3.85;;
67882;SDS011;54681;52.486;-1.890;2023-01-16T04:04:15;9.35;;;3.60;;
67882;SDS011;54681;52.486;-1.890;2023-01-16T04:06:48;9.02;;;3.45;;
67882;SDS011;54681;52.486;-1.890;2023-01-16T04:12:20;9.82;;;3.38;;
67882;SDS011;54681;52.486;-1.890;2023-01-16T04:14:48;11.85;;;3.72;;
67882;SDS011;54681;52.486;-1.890;2023-01-16T04:17:20;9.25;;;3.45;;
67882;SDS011;54681;52.486;-1.890;2023-01-16T04:19:46;9.48;;;3.40;;
67882;SDS011;54681;52.486;-1.890;2023-01-16T04:22:20;10.68;;;3.20;;
67882;SDS011;54681;52.486;-1.890;2023-01-16T04:24:48;8.60;;;3.40;;
67882;SDS011;54681;52.486;-1.890;2023-01-16T04:27:15;9.23;;;3.28;;
67882;SDS011;54681;52.486;-1.890;2023-01-16T04:29:42;8.13;;;3.60;;
67882;SDS011;54681;52.486;-1.890;2023-01-16T04:32:07;9.27;;;3.20;;
67882;SDS011;54681;52.486;-1.890;2023-01-16T04:34:33;7.80;;;3.13;;
67882;SDS011;54681;52.486;-1.890;2023-01-16T04:36:58;7.57;;;3.22;;
67882;SDS011;54681;52.486;-1.890;2023-01-16T04:39:23;8.73;;;2.97;;
67882;SDS011;54681;52.486;-1.890;2023-01-16T04:41:49;7.35;;;3.08;;
67882;SDS011;54681;52.486;-1.890;2023-01-16T04:44:15;7.40;;;3.03;;
67882;SDS011;54681;52.486;-1.890;2023-01-16T04:46:41;7.57;;;3.33;;
67882;SDS011;54681;52.486;-1.890;2023-01-16T04:49:07;8.35;;;3.25;;
67882;SDS011;54681;52.486;-1.890;2023-01-16T04:51:33;10.27;;;3.20;;
67882;SDS011;54681;52.486;-1.890;2023-01-16T04:53:59;5.90;;;2.83;;
67882;SDS011;54681;52.486;-1.890;2023-01-16T04:56:25;6.80;;;2.92;;
67882;SDS011;54681;52.486;-1.890;2023-01-16T04:58:50;7.00;;;2.97;;
67882;SDS011;54681;52.486;-1.890;2023-01-16T05:01:18;8.68;;;3.00;;
67882;SDS011;54681;52.486;-1.890;2023-01-16T05:03:43;6.28;;;2.83;;
67882;SDS011;54681;52.486;-1.890;2023-01-16T05:06:08;7.05;;;2.90;;
67882;SDS011;54681;52.486;-1.890;2023-01-16T05:08:34;8.35;;;2.97;;
67882;SDS011;54681;52.486;-1.890;2023-01-16T05:10:59;5.68;;;2.60;;
67882;SDS011;54681;52.486;-1.890;2023-01-16T05:13:27;6.78;;;3.00;;
67882;SDS011;54681;52.486;-1.890;2023-01-16T05:15:53;5.70;;;2.70;;
67882;SDS011;54681;52.486;-1.890;2023-01-16T05:18:18;6.97;;;2.80;;
67882;SDS011;54681;52.486;-1.890;2023-01-16T05:20:44;5.90;;;2.60;;
67882;SDS011;54681;52.486;-1.890;2023-01-16T05:23:10;6.47;;;2.60;;
67882;SDS011;54681;52.486;-1.890;2023-01-16T05:25:36;8.02;;;2.97;;
67882;SDS011;54681;52.486;-1.890;2023-01-16T05:28:02;7.38;;;2.60;;
67882;SDS011;54681;52.486;-1.890;2023-01-16T05:30:28;6.70;;;2.78;;
67882;SDS011;54681;52.486;-1.890;2023-01-16T05:32:53;5.35;;;2.83;;
67882;SDS011;54681;52.486;-1.890;2023-01-16T05:35:18;6.65;;;2.60;;
67882;SDS011;54681;52.486;-1.890;2023-01-16T05:37:45;5.40;;;2.75;;
67882;SDS011;54681;52.486;-1.890;2023-01-16T05:40:10;6.85;;;2.67;;
67882;SDS011;54681;52.486;-1.890;2023-01-16T05:42:37;5.53;;;2.53;;
67882;SDS011;54681;52.486;-1.890;2023-01-16T05:45:03;6.72;;;2.60;;
67882;SDS011;54681;52.486;-1.890;2023-01-16T05:47:28;5.97;;;2.50;;
67882;SDS011;54681;52.486;-1.890;2023-01-16T05:49:54;6.28;;;2.55;;
67882;SDS011;54681;52.486;-1.890;2023-01-16T05:52:23;5.97;;;2.50;;
67882;SDS011;54681;52.486;-1.890;2023-01-16T05:54:50;4.68;;;2.30;;
67882;SDS011;54681;52.486;-1.890;2023-01-16T05:57:16;5.25;;;2.45;;
67882;SDS011;54681;52.486;-1.890;2023-01-16T05:59:41;4.97;;;2.40;;
67882;SDS011;54681;52.486;-1.890;2023-01-16T06:02:10;5.30;;;2.47;;
67882;SDS011;54681;52.486;-1.890;2023-01-16T06:04:36;4.57;;;2.33;;
67882;SDS011;54681;52.486;-1.890;2023-01-16T06:07:02;5.10;;;2.30;;
67882;SDS011;54681;52.486;-1.890;2023-01-16T06:09:27;4.22;;;2.30;;
67882;SDS011;54681;52.486;-1.890;2023-01-16T06:11:53;5.60;;;2.33;;
67882;SDS011;54681;52.486;-1.890;2023-01-16T06:14:18;3.42;;;2.35;;
67882;SDS011;54681;52.486;-1.890;2023-01-16T06:16:44;4.50;;;2.08;;
67882;SDS011;54681;52.486;-1.890;2023-01-16T06:19:09;3.10;;;2.00;;
67882;SDS011;54681;52.486;-1.890;2023-01-16T06:21:35;4.82;;;2.25;;
67882;SDS011;54681;52.486;-1.890;2023-01-16T06:24:00;4.68;;;2.20;;
67882;SDS011;54681;52.486;-1.890;2023-01-16T06:26:25;3.30;;;2.20;;
67882;SDS011;54681;52.486;-1.890;2023-01-16T06:28:51;4.07;;;2.25;;
67882;SDS011;54681;52.486;-1.890;2023-01-16T06:31:16;5.07;;;2.35;;
67882;SDS011;54681;52.486;-1.890;2023-01-16T06:33:42;3.55;;;2.25;;
67882;SDS011;54681;52.486;-1.890;2023-01-16T06:36:07;3.65;;;2.17;;
67882;SDS011;54681;52.486;-1.890;2023-01-16T06:38:33;2.97;;;2.03;;
67882;SDS011;54681;52.486;-1.890;2023-01-16T06:40:58;2.92;;;1.98;;
67882;SDS011;54681;52.486;-1.890;2023-01-16T06:43:24;3.70;;;2.10;;
67882;SDS011;54681;52.486;-1.890;2023-01-16T06:45:51;3.53;;;2.03;;
67882;SDS011;54681;52.486;-1.890;2023-01-16T06:48:17;4.18;;;2.20;;
67882;SDS011;54681;52.486;-1.890;2023-01-16T06:50:43;4.78;;;2.00;;
67882;SDS011;54681;52.486;-1.890;2023-01-16T06:53:09;3.83;;;2.20;;
67882;SDS011;54681;52.486;-1.890;2023-01-16T06:55:34;3.53;;;2.15;;
67882;SDS011;54681;52.486;-1.890;2023-01-16T06:58:00;3.60;;;1.98;;
67882;SDS011;54681;52.486;-1.890;2023-01-16T07:00:25;4.15;;;2.10;;
67882;SDS011;54681;52.486;-1.890;2023-01-16T07:02:51;4.50;;;2.20;;
67882;SDS011;54681;52.486;-1.890;2023-01-16T07:05:20;4.40;;;2.30;;
67882;SDS011;54681;52.486;-1.890;2023-01-16T07:07:46;3.30;;;2.10;;
67882;SDS011;54681;52.486;-1.890;2023-01-16T07:10:12;4.57;;;2.28;;
67882;SDS011;54681;52.486;-1.890;2023-01-16T07:12:38;3.10;;;2.05;;
67882;SDS011;54681;52.486;-1.890;2023-01-16T07:15:04;3.60;;;2.00;;
67882;SDS011;54681;52.486;-1.890;2023-01-16T07:17:42;3.27;;;2.10;;
67882;SDS011;54681;52.486;-1.890;2023-01-16T07:20:22;3.53;;;2.08;;
67882;SDS011;54681;52.486;-1.890;2023-01-16T07:23:09;2.90;;;2.00;;
67882;SDS011;54681;52.486;-1.890;2023-01-16T07:25:43;4.35;;;2.30;;
67882;SDS011;54681;52.486;-1.890;2023-01-16T07:28:09;3.97;;;2.10;;
67882;SDS011;54681;52.486;-1.890;2023-01-16T07:30:35;3.60;;;2.17;;
67882;SDS011;54681;52.486;-1.890;2023-01-16T07:33:00;3.67;;;2.10;;
67882;SDS011;54681;52.486;-1.890;2023-01-16T07:35:26;2.95;;;2.22;;
67882;SDS011;54681;52.486;-1.890;2023-01-16T07:37:51;3.35;;;2.30;;
67882;SDS011;54681;52.486;-1.890;2023-01-16T07:40:21;2.60;;;2.10;;
67882;SDS011;54681;52.486;-1.890;2023-01-16T07:42:48;3.45;;;2.25;;
67882;SDS011;54681;52.486;-1.890;2023-01-16T07:45:15;3.70;;;2.58;;
67882;SDS011;54681;52.486;-1.890;2023-01-16T07:47:40;3.25;;;2.20;;
67882;SDS011;54681;52.486;-1.890;2023-01-16T07:50:06;3.42;;;2.15;;
67882;SDS011;54681;52.486;-1.890;2023-01-16T07:52:31;3.70;;;2.42;;
67882;SDS011;54681;52.486;-1.890;2023-01-16T07:54:57;4.22;;;2.40;;
67882;SDS011;54681;52.486;-1.890;2023-01-16T07:57:22;3.90;;;2.50;;
67882;SDS011;54681;52.486;-1.890;2023-01-16T07:59:50;3.60;;;2.33;;
67882;SDS011;54681;52.486;-1.890;2023-01-16T08:02:15;4.18;;;2.42;;
67882;SDS011;54681;52.486;-1.890;2023-01-16T08:04:41;4.80;;;2.45;;
67882;SDS011;54681;52.486;-1.890;2023-01-16T08:07:07;5.07;;;2.45;;
67882;SDS011;54681;52.486;-1.890;2023-01-16T08:09:33;4.35;;;2.40;;
67882;SDS011;54681;52.486;-1.890;2023-01-16T08:11:58;5.07;;;2.58;;
67882;SDS011;54681;52.486;-1.890;2023-01-16T08:14:23;3.88;;;2.33;;
67882;SDS011;54681;52.486;-1.890;2023-01-16T08:16:49;5.25;;;2.60;;
67882;SDS011;54681;52.486;-1.890;2023-01-16T08:19:14;4.47;;;2.53;;
67882;SDS011;54681;52.486;-1.890;2023-01-16T08:21:40;4.50;;;2.80;;
67882;SDS011;54681;52.486;-1.890;2023-01-16T08:24:06;4.72;;;2.80;;
67882;SDS011;54681;52.486;-1.890;2023-01-16T08:26:32;5.82;;;3.10;;
67882;SDS011;54681;52.486;-1.890;2023-01-16T08:28:57;5.88;;;3.10;;
67882;SDS011;54681;52.486;-1.890;2023-01-16T08:31:24;5.13;;;2.95;;
67882;SDS011;54681;52.486;-1.890;2023-01-16T08:33:50;4.05;;;2.75;;
67882;SDS011;54681;52.486;-1.890;2023-01-16T08:36:16;5.50;;;3.05;;
67882;SDS011;54681;52.486;-1.890;2023-01-16T08:41:10;5.68;;;3.03;;
67882;SDS011;54681;52.486;-1.890;2023-01-16T08:43:53;5.00;;;2.88;;
67882;SDS011;54681;52.486;-1.890;2023-01-16T08:46:33;4.43;;;2.90;;
67882;SDS011;54681;52.486;-1.890;2023-01-16T08:49:13;5.35;;;3.20;;
67882;SDS011;54681;52.486;-1.890;2023-01-16T08:51:53;4.95;;;3.08;;
67882;SDS011;54681;52.486;-1.890;2023-01-16T08:54:18;4.45;;;2.90;;
67882;SDS011;54681;52.486;-1.890;2023-01-16T08:56:44;5.05;;;3.13;;
67882;SDS011;54681;52.486;-1.890;2023-01-16T08:59:09;5.25;;;2.90;;
67882;SDS011;54681;52.486;-1.890;2023-01-16T09:01:36;7.22;;;3.10;;
67882;SDS011;54681;52.486;-1.890;2023-01-16T09:04:03;4.85;;;2.85;;
67882;SDS011;54681;52.486;-1.890;2023-01-16T09:06:29;5.18;;;2.90;;
67882;SDS011;54681;52.486;-1.890;2023-01-16T09:08:55;4.75;;;3.20;;
67882;SDS011;54681;52.486;-1.890;2023-01-16T09:11:20;5.22;;;3.15;;
67882;SDS011;54681;52.486;-1.890;2023-01-16T09:14:03;6.25;;;3.30;;
67882;SDS011;54681;52.486;-1.890;2023-01-16T09:16:28;4.63;;;3.05;;
67882;SDS011;54681;52.486;-1.890;2023-01-16T09:18:54;5.72;;;3.25;;
67882;SDS011;54681;52.486;-1.890;2023-01-16T09:21:19;5.70;;;3.20;;
67882;SDS011;54681;52.486;-1.890;2023-01-16T09:23:47;4.55;;;3.08;;
67882;SDS011;54681;52.486;-1.890;2023-01-16T09:26:12;3.95;;;3.00;;
67882;SDS011;54681;52.486;-1.890;2023-01-16T09:28:38;4.00;;;3.00;;
67882;SDS011;54681;52.486;-1.890;2023-01-16T09:31:04;5.18;;;2.88;;
67882;SDS011;54681;52.486;-1.890;2023-01-16T09:33:29;5.13;;;3.00;;
67882;SDS011;54681;52.486;-1.890;2023-01-16T09:35:55;4.50;;;2.85;;
67882;SDS011;54681;52.486;-1.890;2023-01-16T09:38:20;4.45;;;2.85;;
67882;SDS011;54681;52.486;-1.890;2023-01-16T09:40:46;4.22;;;2.83;;
67882;SDS011;54681;52.486;-1.890;2023-01-16T09:43:26;4.75;;;2.60;;
67882;SDS011;54681;52.486;-1.890;2023-01-16T09:46:13;3.78;;;2.60;;
67882;SDS011;54681;52.486;-1.890;2023-01-16T09:48:46;4.13;;;2.70;;
67882;SDS011;54681;52.486;-1.890;2023-01-16T09:51:23;4.22;;;2.60;;
67882;SDS011;54681;52.486;-1.890;2023-01-16T09:53:55;4.25;;;2.47;;
67882;SDS011;54681;52.486;-1.890;2023-01-16T09:56:45;3.92;;;2.53;;
67882;SDS011;54681;52.486;-1.890;2023-01-16T09:59:25;3.40;;;2.40;;
67882;SDS011;54681;52.486;-1.890;2023-01-16T10:01:56;3.05;;;2.33;;
67882;SDS011;54681;52.486;-1.890;2023-01-16T10:04:30;2.58;;;2.20;;
67882;SDS011;54681;52.486;-1.890;2023-01-16T10:07:18;3.75;;;2.22;;
67882;SDS011;54681;52.486;-1.890;2023-01-16T10:09:58;2.55;;;2.20;;
67882;SDS011;54681;52.486;-1.890;2023-01-16T10:12:33;2.70;;;2.30;;
67882;SDS011;54681;52.486;-1.890;2023-01-16T10:15:04;2.58;;;2.10;;
67882;SDS011;54681;52.486;-1.890;2023-01-16T10:17:43;4.28;;;2.25;;
67882;SDS011;54681;52.486;-1.890;2023-01-16T10:20:31;3.58;;;2.20;;
67882;SDS011;54681;52.486;-1.890;2023-01-16T10:23:12;2.83;;;2.00;;
67882;SDS011;54681;52.486;-1.890;2023-01-16T10:25:50;2.33;;;2.00;;
67882;SDS011;54681;52.486;-1.890;2023-01-16T10:31:33;2.92;;;2.00;;
67882;SDS011;54681;52.486;-1.890;2023-01-16T10:34:08;4.53;;;2.10;;
67882;SDS011;54681;52.486;-1.890;2023-01-16T10:36:41;2.72;;;1.92;;
67882;SDS011;54681;52.486;-1.890;2023-01-16T10:39:11;2.78;;;1.95;;
67882;SDS011;54681;52.486;-1.890;2023-01-16T10:41:39;2.65;;;1.80;;
67882;SDS011;54681;52.486;-1.890;2023-01-16T10:47:26;2.97;;;1.85;;
67882;SDS011;54681;52.486;-1.890;2023-01-16T10:50:14;2.38;;;2.03;;
67882;SDS011;54681;52.486;-1.890;2023-01-16T10:52:41;2.80;;;1.90;;
67882;SDS011;54681;52.486;-1.890;2023-01-16T10:55:07;2.35;;;1.80;;
67882;SDS011;54681;52.486;-1.890;2023-01-16T10:57:34;2.95;;;1.70;;
67882;SDS011;54681;52.486;-1.890;2023-01-16T11:00:04;2.25;;;1.98;;
67882;SDS011;54681;52.486;-1.890;2023-01-16T11:02:44;4.03;;;2.00;;
67882;SDS011;54681;52.486;-1.890;2023-01-16T11:08:04;2.22;;;1.70;;
67882;SDS011;54681;52.486;-1.890;2023-01-16T11:10:35;2.30;;;1.77;;
67882;SDS011;54681;52.486;-1.890;2023-01-16T11:13:00;3.70;;;1.77;;
67882;SDS011;54681;52.486;-1.890;2023-01-16T11:15:36;4.28;;;1.90;;
67882;SDS011;54681;52.486;-1.890;2023-01-16T11:18:20;3.42;;;1.90;;
67882;SDS011;54681;52.486;-1.890;2023-01-16T11:20:54;2.85;;;1.83;;
67882;SDS011;54681;52.486;-1.890;2023-01-16T11:23:23;2.30;;;1.80;;
67882;SDS011;54681;52.486;-1.890;2023-01-16T11:25:51;2.80;;;1.98;;
67882;SDS011;54681;52.486;-1.890;2023-01-16T11:28:29;3.05;;;1.90;;
67882;SDS011;54681;52.486;-1.890;2023-01-16T11:30:56;3.10;;;1.90;;
67882;SDS011;54681;52.486;-1.890;2023-01-16T11:33:26;2.17;;;1.80;;
67882;SDS011;54681;52.486;-1.890;2023-01-16T11:35:58;6.70;;;2.00;;
67882;SDS011;54681;52.486;-1.890;2023-01-16T11:38:27;2.45;;;1.70;;
67882;SDS011;54681;52.486;-1.890;2023-01-16T11:40:55;2.85;;;1.90;;
67882;SDS011;54681;52.486;-1.890;2023-01-16T11:43:23;2.67;;;2.00;;
67882;SDS011;54681;52.486;-1.890;2023-01-16T11:49:14;2.45;;;1.90;;
67882;SDS011;54681;52.486;-1.890;2023-01-16T11:51:43;4.13;;;1.75;;
67882;SDS011;54681;52.486;-1.890;2023-01-16T11:54:14;4.32;;;1.95;;
67882;SDS011;54681;52.486;-1.890;2023-01-16T11:56:50;4.15;;;1.90;;
67882;SDS011;54681;52.486;-1.890;2023-01-16T11:59:49;2.67;;;1.70;;
67882;SDS011;54681;52.486;-1.890;2023-01-16T12:17:04;2.78;;;1.48;;
67882;SDS011;54681;52.486;-1.890;2023-01-16T12:22:51;3.20;;;1.67;;
67882;SDS011;54681;52.486;-1.890;2023-01-16T12:28:45;2.20;;;1.55;;
67882;SDS011;54681;52.486;-1.890;2023-01-16T12:31:24;2.78;;;1.50;;
67882;SDS011;54681;52.486;-1.890;2023-01-16T12:36:59;2.10;;;1.60;;
67882;SDS011;54681;52.486;-1.890;2023-01-16T12:39:48;1.85;;;1.50;;
67882;SDS011;54681;52.486;-1.890;2023-01-16T12:45:33;1.40;;;1.30;;
67882;SDS011;54681;52.486;-1.890;2023-01-16T12:48:27;1.50;;;1.40;;
67882;SDS011;54681;52.486;-1.890;2023-01-16T12:51:02;1.52;;;1.30;;
67882;SDS011;54681;52.486;-1.890;2023-01-16T12:56:37;2.95;;;1.40;;
67882;SDS011;54681;52.486;-1.890;2023-01-16T12:59:18;5.18;;;1.50;;
67882;SDS011;54681;52.486;-1.890;2023-01-16T13:01:49;5.40;;;1.40;;
67882;SDS011;54681;52.486;-1.890;2023-01-16T13:04:22;2.50;;;1.20;;
67882;SDS011;54681;52.486;-1.890;2023-01-16T13:06:57;2.33;;;1.40;;
67882;SDS011;54681;52.486;-1.890;2023-01-16T13:09:28;1.55;;;1.30;;
67882;SDS011;54681;52.486;-1.890;2023-01-16T13:12:10;10.63;;;1.52;;
67882;SDS011;54681;52.486;-1.890;2023-01-16T13:14:56;2.35;;;1.30;;
67882;SDS011;54681;52.486;-1.890;2023-01-16T13:17:26;1.20;;;1.10;;
67882;SDS011;54681;52.486;-1.890;2023-01-16T13:20:03;2.90;;;1.27;;
67882;SDS011;54681;52.486;-1.890;2023-01-16T13:22:33;3.97;;;1.10;;
67882;SDS011;54681;52.486;-1.890;2023-01-16T13:25:09;1.23;;;1.13;;
67882;SDS011;54681;52.486;-1.890;2023-01-16T13:27:52;2.35;;;1.17;;
67882;SDS011;54681;52.486;-1.890;2023-01-16T13:30:22;6.97;;;1.30;;
67882;SDS011;54681;52.486;-1.890;2023-01-16T13:32:51;1.55;;;1.13;;
67882;SDS011;54681;52.486;-1.890;2023-01-16T13:35:24;3.38;;;1.05;;
67882;SDS011;54681;52.486;-1.890;2023-01-16T13:37:57;11.25;;;1.20;;
67882;SDS011;54681;52.486;-1.890;2023-01-16T13:43:37;1.98;;;1.20;;
67882;SDS011;54681;52.486;-1.890;2023-01-16T13:46:26;6.15;;;1.30;;
67882;SDS011;54681;52.486;-1.890;2023-01-16T13:48:53;6.28;;;1.17;;
67882;SDS011;54681;52.486;-1.890;2023-01-16T13:51:24;2.38;;;1.10;;
67882;SDS011;54681;52.486;-1.890;2023-01-16T13:53:51;2.20;;;1.08;;
67882;SDS011;54681;52.486;-1.890;2023-01-16T13:56:24;6.07;;;1.10;;
67882;SDS011;54681;52.486;-1.890;2023-01-16T13:58:55;3.30;;;0.95;;
67882;SDS011;54681;52.486;-1.890;2023-01-16T14:01:32;2.97;;;1.13;;
67882;SDS011;54681;52.486;-1.890;2023-01-16T14:04:11;5.82;;;1.10;;
67882;SDS011;54681;52.486;-1.890;2023-01-16T14:06:54;1.75;;;1.02;;
67882;SDS011;54681;52.486;-1.890;2023-01-16T14:12:59;2.47;;;0.90;;
67882;SDS011;54681;52.486;-1.890;2023-01-16T14:15:43;3.50;;;1.25;;
67882;SDS011;54681;52.486;-1.890;2023-01-16T14:18:35;1.52;;;0.98;;
67882;SDS011;54681;52.486;-1.890;2023-01-16T14:21:20;3.80;;;1.17;;
67882;SDS011;54681;52.486;-1.890;2023-01-16T14:23:54;1.58;;;1.00;;
67882;SDS011;54681;52.486;-1.890;2023-01-16T14:26:42;2.00;;;1.17;;
67882;SDS011;54681;52.486;-1.890;2023-01-16T14:29:28;2.95;;;1.13;;
67882;SDS011;54681;52.486;-1.890;2023-01-16T14:32:05;1.30;;;1.00;;
67882;SDS011;54681;52.486;-1.890;2023-01-16T14:34:47;3.58;;;0.95;;
67882;SDS011;54681;52.486;-1.890;2023-01-16T14:43:15;2.15;;;0.80;;
67882;SDS011;54681;52.486;-1.890;2023-01-16T14:55:51;2.00;;;1.10;;
67882;SDS011;54681;52.486;-1.890;2023-01-16T14:58:17;1.08;;;0.98;;
67882;SDS011;54681;52.486;-1.890;2023-01-16T15:00:47;1.13;;;1.02;;
67882;SDS011;54681;52.486;-1.890;2023-01-16T15:03:19;2.42;;;1.00;;
67882;SDS011;54681;52.486;-1.890;2023-01-16T15:05:51;1.00;;;0.88;;
67882;SDS011;54681;52.486;-1.890;2023-01-16T15:08:21;2.03;;;0.90;;
67882;SDS011;54681;52.486;-1.890;2023-01-16T15:10:50;0.88;;;0.85;;
67882;SDS011;54681;52.486;-1.890;2023-01-16T15:13:20;0.73;;;0.70;;
67882;SDS011;54681;52.486;-1.890;2023-01-16T15:16:19;1.65;;;1.10;;
67882;SDS011;54681;52.486;-1.890;2023-01-16T15:22:15;0.85;;;0.82;;
67882;SDS011;54681;52.486;-1.890;2023-01-16T15:24:44;2.00;;;1.05;;
67882;SDS011;54681;52.486;-1.890;2023-01-16T15:27:19;1.27;;;1.17;;
67882;SDS011;54681;52.486;-1.890;2023-01-16T15:29:55;2.33;;;1.05;;
67882;SDS011;54681;52.486;-1.890;2023-01-16T15:32:27;1.08;;;1.00;;
67882;SDS011;54681;52.486;-1.890;2023-01-16T15:37:46;5.47;;;1.10;;
67882;SDS011;54681;52.486;-1.890;2023-01-16T15:40:28;2.05;;;0.98;;
67882;SDS011;54681;52.486;-1.890;2023-01-16T15:42:54;1.88;;;0.93;;
67882;SDS011;54681;52.486;-1.890;2023-01-16T15:45:37;1.05;;;0.95;;
67882;SDS011;54681;52.486;-1.890;2023-01-16T15:48:39;1.38;;;1.20;;
67882;SDS011;54681;52.486;-1.890;2023-01-16T15:51:13;1.20;;;1.10;;
67882;SDS011;54681;52.486;-1.890;2023-01-16T15:53:43;1.02;;;0.93;;
67882;SDS011;54681;52.486;-1.890;2023-01-16T15:56:19;3.40;;;1.08;;
67882;SDS011;54681;52.486;-1.890;2023-01-16T15:58:50;2.20;;;1.00;;
67882;SDS011;54681;52.486;-1.890;2023-01-16T16:01:23;1.45;;;1.15;;
67882;SDS011;54681;52.486;-1.890;2023-01-16T16:03:51;1.75;;;1.17;;
67882;SDS011;54681;52.486;-1.890;2023-01-16T16:06:18;1.23;;;1.13;;
67882;SDS011;54681;52.486;-1.890;2023-01-16T16:08:45;1.45;;;1.00;;
67882;SDS011;54681;52.486;-1.890;2023-01-16T16:11:20;3.00;;;1.10;;
67882;SDS011;54681;52.486;-1.890;2023-01-16T16:14:12;2.25;;;1.25;;
67882;SDS011;54681;52.486;-1.890;2023-01-16T16:16:59;1.10;;;1.00;;
67882;SDS011;54681;52.486;-1.890;2023-01-16T16:19:37;2.00;;;1.23;;
67882;SDS011;54681;52.486;-1.890;2023-01-16T16:22:07;1.63;;;1.10;;
67882;SDS011;54681;52.486;-1.890;2023-01-16T16:24:47;1.70;;;1.20;;
67882;SDS011;54681;52.486;-1.890;2023-01-16T16:27:14;1.35;;;1.20;;
67882;SDS011;54681;52.486;-1.890;2023-01-16T16:29:47;3.35;;;1.40;;
67882;SDS011;54681;52.486;-1.890;2023-01-16T16:32:15;2.10;;;1.20;;
67882;SDS011;54681;52.486;-1.890;2023-01-16T16:34:43;3.22;;;1.33;;
67882;SDS011;54681;52.486;-1.890;2023-01-16T16:37:17;4.50;;;1.30;;
67882;SDS011;54681;52.486;-1.890;2023-01-16T16:39:47;2.83;;;1.23;;
67882;SDS011;54681;52.486;-1.890;2023-01-16T16:45:19;1.55;;;1.30;;
67882;SDS011;54681;52.486;-1.890;2023-01-16T16:47:49;2.90;;;1.40;;
67882;SDS011;54681;52.486;-1.890;2023-01-16T16:50:44;1.80;;;1.40;;
67882;SDS011;54681;52.486;-1.890;2023-01-16T16:53:11;2.47;;;1.30;;